Time;durP1;ratioP1;P1;durP2;ratioP2;P2;SDS_P1;SDS_P2;PMS_P1;PMS_P2;Temp;Humidity;BMP_temperature;BMP_pressure;BME280_temperature;BME280_humidity;BME280_pressure;Samples;Min_cycle;Max_cycle;Signal;HPM_P1;HPM_P2
2023/08/07 00:00:00;;;;;;;3.40;2.70;;;;;;;;;;5082895;28;20460;-80
2023/08/07 00:02:27;;;;;;;5.67;3.17;;;;;;;;;;5086672;28;20465;-78
2023/08/07 00:04:55;;;;;;;4.80;3.10;;;;;;;;;;5085967;28;20465;-78
2023/08/07 00:07:25;;;;;;;7.90;3.07;;;;;;;;;;5082117;28;20556;-79
2023/08/07 00:09:55;;;;;;;8.87;2.80;;;;;;;;;;5084806;28;20462;-79
2023/08/07 00:12:22;;;;;;;6.27;3.00;;;;;;;;;;5084726;28;20477;-78
2023/08/07 00:14:52;;;;;;;7.23;3.80;;;;;;;;;;5085342;28;20460;-78
2023/08/07 00:17:19;;;;;;;4.40;2.10;;;;;;;;;;5080307;28;20544;-80
2023/08/07 00:19:52;;;;;;;4.67;3.20;;;;;;;;;;5083566;28;20445;-78
2023/08/07 00:22:19;;;;;;;7.17;2.90;;;;;;;;;;5082997;28;20472;-78
2023/08/07 00:24:48;;;;;;;4.20;2.70;;;;;;;;;;5082730;28;20475;-79
2023/08/07 00:27:17;;;;;;;4.43;3.17;;;;;;;;;;5082047;28;20445;-78
2023/08/07 00:29:48;;;;;;;8.13;3.77;;;;;;;;;;5084847;28;20460;-78
2023/08/07 00:32:16;;;;;;;4.70;2.80;;;;;;;;;;5082292;28;20500;-79
2023/08/07 00:34:44;;;;;;;5.57;3.20;;;;;;;;;;5082653;28;20475;-79
2023/08/07 00:37:11;;;;;;;5.83;3.30;;;;;;;;;;5082460;28;20639;-79
2023/08/07 00:39:39;;;;;;;4.23;2.83;;;;;;;;;;5083939;28;20457;-79
2023/08/07 00:42:07;;;;;;;8.77;3.20;;;;;;;;;;5084181;28;20444;-79
2023/08/07 00:44:37;;;;;;;5.67;2.70;;;;;;;;;;5085321;28;20451;-79
2023/08/07 00:47:04;;;;;;;5.30;3.50;;;;;;;;;;5084937;28;20472;-79
2023/08/07 00:49:32;;;;;;;4.20;2.50;;;;;;;;;;5083508;28;20938;-79
2023/08/07 00:52:00;;;;;;;3.87;2.60;;;;;;;;;;5084939;28;20810;-78
2023/08/07 00:54:27;;;;;;;3.87;2.30;;;;;;;;;;5083066;28;20459;-79
2023/08/07 00:56:55;;;;;;;4.33;2.70;;;;;;;;;;5085235;28;20485;-78
2023/08/07 00:59:23;;;;;;;4.70;3.03;;;;;;;;;;5084050;28;20471;-77
2023/08/07 01:01:52;;;;;;;5.30;2.63;;;;;;;;;;5084497;28;20471;-79
2023/08/07 01:04:20;;;;;;;3.90;2.40;;;;;;;;;;5085885;28;20787;-79
2023/08/07 01:06:48;;;;;;;6.23;2.97;;;;;;;;;;5086111;28;20437;-79
2023/08/07 01:09:16;;;;;;;6.20;2.97;;;;;;;;;;5085794;28;20467;-78
2023/08/07 01:11:46;;;;;;;4.23;3.23;;;;;;;;;;5084397;28;20469;-80
2023/08/07 01:14:20;;;;;;;6.80;2.60;;;;;;;;;;5087047;28;20444;-78
2023/08/07 01:16:50;;;;;;;4.00;2.60;;;;;;;;;;5090544;28;20462;-79
2023/08/07 01:19:21;;;;;;;3.70;2.43;;;;;;;;;;5090806;28;20519;-78
2023/08/07 01:21:51;;;;;;;4.27;2.83;;;;;;;;;;5088230;28;20990;-78
2023/08/07 01:24:19;;;;;;;5.10;2.90;;;;;;;;;;5090848;28;20454;-79
2023/08/07 01:26:49;;;;;;;8.07;2.67;;;;;;;;;;5088488;28;20429;-79
2023/08/07 01:29:22;;;;;;;6.10;2.70;;;;;;;;;;5090137;28;20455;-78
2023/08/07 01:31:51;;;;;;;4.50;2.67;;;;;;;;;;5087962;28;20456;-79
2023/08/07 01:34:20;;;;;;;3.13;2.23;;;;;;;;;;5087737;28;20475;-79
2023/08/07 01:36:51;;;;;;;3.83;2.40;;;;;;;;;;5087464;28;20491;-79
2023/08/07 01:39:21;;;;;;;4.07;2.00;;;;;;;;;;5086727;28;20791;-78
2023/08/07 01:41:49;;;;;;;3.90;2.67;;;;;;;;;;5087181;28;20459;-79
2023/08/07 01:44:16;;;;;;;8.20;2.93;;;;;;;;;;5085022;28;20444;-79
2023/08/07 01:46:44;;;;;;;6.87;2.63;;;;;;;;;;5085748;28;20880;-79
2023/08/07 01:49:12;;;;;;;4.63;2.50;;;;;;;;;;5084249;28;20452;-79
2023/08/07 01:51:44;;;;;;;7.33;2.50;;;;;;;;;;5087594;28;20500;-79
2023/08/07 01:54:13;;;;;;;6.53;3.53;;;;;;;;;;5084422;28;20468;-79
2023/08/07 01:56:42;;;;;;;4.30;2.40;;;;;;;;;;5086200;28;20495;-79
2023/08/07 01:59:11;;;;;;;3.83;2.27;;;;;;;;;;5087424;28;20468;-79
2023/08/07 02:01:39;;;;;;;4.40;2.70;;;;;;;;;;5086522;28;20460;-79
2023/08/07 02:04:07;;;;;;;3.50;2.70;;;;;;;;;;5103195;28;20514;-79
2023/08/07 02:06:34;;;;;;;4.13;2.40;;;;;;;;;;5105325;28;20447;-78
2023/08/07 02:09:02;;;;;;;5.00;2.70;;;;;;;;;;5108002;28;20470;-78
2023/08/07 02:11:30;;;;;;;3.57;2.07;;;;;;;;;;5105720;28;20459;-78
2023/08/07 02:13:59;;;;;;;3.70;2.40;;;;;;;;;;5105995;28;20910;-78
2023/08/07 02:16:27;;;;;;;3.47;2.63;;;;;;;;;;5106995;28;20494;-78
2023/08/07 02:18:55;;;;;;;4.93;2.43;;;;;;;;;;5106264;28;20455;-78
2023/08/07 02:21:23;;;;;;;3.17;2.17;;;;;;;;;;5107870;28;20511;-78
2023/08/07 02:23:50;;;;;;;3.27;2.20;;;;;;;;;;5105734;28;20451;-80
2023/08/07 02:26:21;;;;;;;2.60;1.63;;;;;;;;;;5105288;28;20758;-79
2023/08/07 02:28:48;;;;;;;3.40;2.27;;;;;;;;;;5107159;28;20997;-79
2023/08/07 02:31:17;;;;;;;6.77;2.67;;;;;;;;;;5107878;28;20451;-78
2023/08/07 02:33:45;;;;;;;5.13;2.27;;;;;;;;;;5107993;28;20519;-78
2023/08/07 02:36:13;;;;;;;3.10;1.93;;;;;;;;;;5107731;28;21146;-78
2023/08/07 02:38:41;;;;;;;4.50;2.80;;;;;;;;;;5110371;28;20840;-78
2023/08/07 02:41:11;;;;;;;9.73;3.00;;;;;;;;;;5108845;28;20454;-78
2023/08/07 02:43:45;;;;;;;3.70;2.07;;;;;;;;;;5109542;28;20444;-79
2023/08/07 02:46:17;;;;;;;4.37;2.40;;;;;;;;;;5108735;28;20448;-79
2023/08/07 02:48:45;;;;;;;3.30;2.23;;;;;;;;;;5108101;28;20444;-79
2023/08/07 02:51:13;;;;;;;4.90;2.53;;;;;;;;;;5104779;28;20533;-80
2023/08/07 02:53:40;;;;;;;3.80;1.93;;;;;;;;;;5105623;28;20431;-77
2023/08/07 02:56:08;;;;;;;3.80;2.17;;;;;;;;;;5104906;28;20486;-79
2023/08/07 02:58:37;;;;;;;3.70;2.13;;;;;;;;;;5104075;28;20490;-78
2023/08/07 03:01:07;;;;;;;2.90;1.63;;;;;;;;;;5104810;28;20440;-79
2023/08/07 03:03:36;;;;;;;4.80;1.97;;;;;;;;;;5104986;28;20486;-78
2023/08/07 03:06:05;;;;;;;4.63;2.10;;;;;;;;;;5104206;28;20463;-78
2023/08/07 03:08:32;;;;;;;4.50;2.43;;;;;;;;;;5105089;28;20444;-78
2023/08/07 03:11:00;;;;;;;3.97;2.13;;;;;;;;;;5104904;28;20456;-78
2023/08/07 03:13:28;;;;;;;3.70;1.70;;;;;;;;;;5103135;28;20723;-80
2023/08/07 03:16:00;;;;;;;3.47;1.93;;;;;;;;;;5103074;28;20479;-79
2023/08/07 03:18:28;;;;;;;5.43;2.30;;;;;;;;;;5104588;28;20474;-80
2023/08/07 03:20:58;;;;;;;5.30;2.20;;;;;;;;;;5103469;28;20554;-77
2023/08/07 03:23:25;;;;;;;4.07;1.90;;;;;;;;;;5104386;28;20443;-79
2023/08/07 03:26:03;;;;;;;8.73;2.27;;;;;;;;;;5105804;28;20711;-79
2023/08/07 03:28:31;;;;;;;4.40;1.93;;;;;;;;;;5108332;28;20535;-79
2023/08/07 03:30:59;;;;;;;8.57;2.70;;;;;;;;;;5106025;28;20456;-79
2023/08/07 03:33:26;;;;;;;4.23;2.50;;;;;;;;;;5104114;28;20459;-79
2023/08/07 03:35:54;;;;;;;4.50;2.13;;;;;;;;;;5103140;28;20459;-78
2023/08/07 03:38:23;;;;;;;5.50;2.30;;;;;;;;;;5101739;28;20663;-79
2023/08/07 03:40:50;;;;;;;7.43;2.83;;;;;;;;;;5104176;28;20452;-79
2023/08/07 03:43:18;;;;;;;5.13;2.17;;;;;;;;;;5100920;28;20488;-79
2023/08/07 03:45:46;;;;;;;6.03;2.30;;;;;;;;;;5102935;28;20444;-79
2023/08/07 03:48:13;;;;;;;5.30;2.30;;;;;;;;;;5102990;28;20463;-79
2023/08/07 03:50:41;;;;;;;4.13;2.77;;;;;;;;;;5103788;28;20448;-79
2023/08/07 03:53:11;;;;;;;4.97;2.20;;;;;;;;;;5103726;28;20466;-79
2023/08/07 03:55:41;;;;;;;3.60;1.90;;;;;;;;;;5106817;28;20455;-79
2023/08/07 03:58:09;;;;;;;4.30;1.97;;;;;;;;;;5103669;28;20504;-79
2023/08/07 04:00:36;;;;;;;7.60;2.20;;;;;;;;;;5105790;28;20463;-79
2023/08/07 04:03:04;;;;;;;7.10;2.20;;;;;;;;;;5104538;28;20455;-79
2023/08/07 04:05:34;;;;;;;6.90;2.80;;;;;;;;;;5102069;28;20456;-79
2023/08/07 04:08:02;;;;;;;3.90;2.17;;;;;;;;;;5103730;28;20451;-79
2023/08/07 04:10:29;;;;;;;6.53;2.10;;;;;;;;;;5103339;28;20455;-79
2023/08/07 04:12:58;;;;;;;5.73;2.40;;;;;;;;;;5104358;28;20456;-79
2023/08/07 04:15:26;;;;;;;4.50;1.83;;;;;;;;;;5104628;28;20475;-79
2023/08/07 04:17:54;;;;;;;2.47;1.57;;;;;;;;;;5103841;28;20487;-79
2023/08/07 04:20:21;;;;;;;4.70;1.90;;;;;;;;;;5106255;28;20440;-78
2023/08/07 04:22:49;;;;;;;5.00;2.50;;;;;;;;;;5103334;28;20468;-79
2023/08/07 04:25:17;;;;;;;4.33;1.70;;;;;;;;;;5107414;28;20452;-80
2023/08/07 04:27:44;;;;;;;3.63;1.50;;;;;;;;;;5102659;28;20481;-77
2023/08/07 04:30:15;;;;;;;5.33;2.33;;;;;;;;;;5104772;28;20428;-79
2023/08/07 04:32:43;;;;;;;3.33;1.90;;;;;;;;;;5102676;28;20452;-78
2023/08/07 04:35:11;;;;;;;5.83;2.23;;;;;;;;;;5102714;28;20463;-79
2023/08/07 04:37:38;;;;;;;6.10;2.23;;;;;;;;;;5103478;28;20492;-79
2023/08/07 04:40:08;;;;;;;3.50;1.47;;;;;;;;;;5103704;28;20471;-79
2023/08/07 04:42:36;;;;;;;5.10;1.97;;;;;;;;;;5101282;28;20982;-79
2023/08/07 04:45:10;;;;;;;3.10;1.90;;;;;;;;;;5103118;28;20964;-79
2023/08/07 04:47:39;;;;;;;3.57;2.00;;;;;;;;;;5103932;28;20534;-79
2023/08/07 04:50:08;;;;;;;4.37;2.00;;;;;;;;;;5103102;28;20451;-79
2023/08/07 04:52:35;;;;;;;4.53;2.00;;;;;;;;;;5102242;28;20829;-78
2023/08/07 04:55:06;;;;;;;3.70;1.53;;;;;;;;;;5104254;28;20874;-78
2023/08/07 04:57:35;;;;;;;2.60;1.67;;;;;;;;;;5086662;28;20747;-78
2023/08/07 05:00:09;;;;;;;4.20;1.57;;;;;;;;;;5081521;28;20710;-79
2023/08/07 05:02:37;;;;;;;5.83;2.03;;;;;;;;;;5092080;28;20579;-78
2023/08/07 05:05:09;;;;;;;4.27;1.80;;;;;;;;;;5103107;28;20452;-79
2023/08/07 05:07:36;;;;;;;3.83;1.83;;;;;;;;;;5104414;28;20541;-78
2023/08/07 05:10:07;;;;;;;4.20;2.00;;;;;;;;;;5105838;28;20517;-79
2023/08/07 05:12:35;;;;;;;3.00;2.00;;;;;;;;;;5104794;28;20475;-79
2023/08/07 05:15:03;;;;;;;4.90;2.20;;;;;;;;;;5105538;28;20455;-78
2023/08/07 05:17:30;;;;;;;3.97;1.97;;;;;;;;;;5107597;28;20918;-78
2023/08/07 05:19:58;;;;;;;2.20;1.37;;;;;;;;;;5106427;28;20778;-78
2023/08/07 05:22:27;;;;;;;6.13;1.73;;;;;;;;;;5106004;28;20539;-79
2023/08/07 05:24:54;;;;;;;4.60;1.87;;;;;;;;;;5103696;28;20466;-79
2023/08/07 05:27:22;;;;;;;6.97;2.07;;;;;;;;;;5105390;28;20517;-79
2023/08/07 05:29:49;;;;;;;3.13;1.70;;;;;;;;;;5103685;28;20448;-79
2023/08/07 05:32:17;;;;;;;6.10;2.13;;;;;;;;;;5100988;28;20444;-79
2023/08/07 05:34:45;;;;;;;2.63;1.23;;;;;;;;;;5103398;28;20436;-78
2023/08/07 05:37:12;;;;;;;2.90;2.00;;;;;;;;;;5101764;28;20483;-79
2023/08/07 05:39:41;;;;;;;5.37;2.20;;;;;;;;;;5102392;28;20463;-79
2023/08/07 05:42:10;;;;;;;4.97;2.27;;;;;;;;;;5101380;28;20500;-79
2023/08/07 05:44:37;;;;;;;5.23;1.73;;;;;;;;;;5101229;28;20502;-79
2023/08/07 05:47:05;;;;;;;4.70;1.90;;;;;;;;;;5102555;28;20755;-79
2023/08/07 05:49:33;;;;;;;3.10;1.80;;;;;;;;;;5101204;28;20454;-78
2023/08/07 05:52:00;;;;;;;5.23;1.93;;;;;;;;;;5104275;28;20806;-78
2023/08/07 05:54:28;;;;;;;5.40;2.07;;;;;;;;;;5104901;28;20455;-78
2023/08/07 05:56:57;;;;;;;5.93;1.80;;;;;;;;;;5097860;28;20491;-79
2023/08/07 05:59:25;;;;;;;7.10;2.00;;;;;;;;;;5095276;28;20851;-76
2023/08/07 06:01:53;;;;;;;3.47;1.60;;;;;;;;;;5101699;28;20476;-78
2023/08/07 06:04:21;;;;;;;4.10;1.60;;;;;;;;;;5103349;28;20462;-77
2023/08/07 06:06:48;;;;;;;4.07;1.87;;;;;;;;;;5097887;28;20443;-77
2023/08/07 06:09:17;;;;;;;5.27;1.83;;;;;;;;;;5094663;28;20443;-79
2023/08/07 06:11:44;;;;;;;3.60;1.77;;;;;;;;;;5097281;28;20460;-77
2023/08/07 06:14:14;;;;;;;3.40;1.80;;;;;;;;;;5098960;28;20440;-78
2023/08/07 06:16:41;;;;;;;7.83;1.80;;;;;;;;;;5102458;28;20540;-79
2023/08/07 06:19:09;;;;;;;4.30;1.93;;;;;;;;;;5088893;28;20514;-77
2023/08/07 06:21:37;;;;;;;4.63;1.73;;;;;;;;;;5093520;28;20445;-77
2023/08/07 06:24:06;;;;;;;3.57;2.03;;;;;;;;;;5099812;28;20522;-78
2023/08/07 06:26:38;;;;;;;5.87;1.97;;;;;;;;;;5094910;28;20800;-78
2023/08/07 06:29:05;;;;;;;7.57;2.90;;;;;;;;;;5098835;28;20452;-77
2023/08/07 06:31:38;;;;;;;3.50;2.27;;;;;;;;;;5104172;28;20448;-81
2023/08/07 06:34:06;;;;;;;5.60;1.60;;;;;;;;;;5098597;28;21041;-78
2023/08/07 06:36:37;;;;;;;4.80;2.20;;;;;;;;;;5092740;28;20522;-78
2023/08/07 06:39:05;;;;;;;6.07;1.60;;;;;;;;;;5080094;28;20464;-78
2023/08/07 06:41:32;;;;;;;5.63;2.20;;;;;;;;;;5079673;28;20493;-77
2023/08/07 06:44:00;;;;;;;7.20;1.90;;;;;;;;;;5079750;28;20467;-77
2023/08/07 06:46:28;;;;;;;5.97;2.17;;;;;;;;;;5082081;28;20452;-79
2023/08/07 06:48:57;;;;;;;4.40;1.73;;;;;;;;;;5082651;28;20456;-79
2023/08/07 06:51:42;;;;;;;4.23;1.80;;;;;;;;;;5086344;28;20474;-77
2023/08/07 06:54:11;;;;;;;4.03;1.73;;;;;;;;;;5081749;28;20448;-77
2023/08/07 06:56:42;;;;;;;7.83;1.90;;;;;;;;;;5089667;28;20465;-78
2023/08/07 06:59:09;;;;;;;6.20;1.80;;;;;;;;;;5106170;28;20547;-77
2023/08/07 07:01:37;;;;;;;7.33;2.07;;;;;;;;;;5093100;28;20498;-79
2023/08/07 07:04:06;;;;;;;7.60;2.03;;;;;;;;;;5102707;28;20436;-78
2023/08/07 07:06:35;;;;;;;5.87;1.87;;;;;;;;;;5096695;28;20466;-79
2023/08/07 07:09:03;;;;;;;5.40;1.80;;;;;;;;;;5098914;28;20485;-78
2023/08/07 07:11:34;;;;;;;4.63;1.70;;;;;;;;;;5094913;28;20523;-77
2023/08/07 07:14:02;;;;;;;6.43;2.00;;;;;;;;;;5096326;28;20684;-77
2023/08/07 07:16:30;;;;;;;7.00;3.13;;;;;;;;;;5100272;28;20473;-78
2023/08/07 07:18:58;;;;;;;6.50;1.80;;;;;;;;;;5083365;28;20912;-78
2023/08/07 07:21:27;;;;;;;9.47;2.90;;;;;;;;;;5092801;28;20533;-78
2023/08/07 07:23:56;;;;;;;5.33;1.80;;;;;;;;;;5087817;28;20449;-78
2023/08/07 07:26:24;;;;;;;5.23;2.00;;;;;;;;;;5090639;28;20486;-77
2023/08/07 07:28:52;;;;;;;4.77;2.03;;;;;;;;;;5083531;28;20448;-78
2023/08/07 07:31:20;;;;;;;5.40;2.03;;;;;;;;;;5083060;28;20456;-78
2023/08/07 07:33:48;;;;;;;6.97;2.30;;;;;;;;;;5088745;28;20451;-79
2023/08/07 07:36:17;;;;;;;5.73;2.00;;;;;;;;;;5092034;28;20637;-78
2023/08/07 07:38:48;;;;;;;7.83;2.20;;;;;;;;;;5095716;28;20487;-77
2023/08/07 07:41:15;;;;;;;12.90;2.90;;;;;;;;;;5091200;28;20472;-78
2023/08/07 07:43:43;;;;;;;6.13;2.03;;;;;;;;;;5089155;28;20454;-79
2023/08/07 07:46:11;;;;;;;6.50;2.53;;;;;;;;;;5096808;28;20452;-79
2023/08/07 07:48:39;;;;;;;8.93;2.87;;;;;;;;;;5079053;28;20460;-78
2023/08/07 07:51:06;;;;;;;5.60;2.63;;;;;;;;;;5089498;28;20478;-78
2023/08/07 07:53:34;;;;;;;11.17;2.47;;;;;;;;;;5092856;28;20464;-79
2023/08/07 07:56:04;;;;;;;7.10;2.30;;;;;;;;;;5077193;28;20528;-77
2023/08/07 07:58:32;;;;;;;7.50;2.83;;;;;;;;;;5079934;28;20803;-78
2023/08/07 08:00:59;;;;;;;5.67;2.20;;;;;;;;;;5077295;28;20449;-77
2023/08/07 08:03:27;;;;;;;10.23;3.00;;;;;;;;;;5082131;28;20487;-78
2023/08/07 08:05:55;;;;;;;5.33;2.63;;;;;;;;;;5081073;28;20476;-78
2023/08/07 08:08:23;;;;;;;10.03;3.30;;;;;;;;;;5079718;28;20497;-76
2023/08/07 08:10:51;;;;;;;5.47;2.63;;;;;;;;;;5087897;28;20485;-76
2023/08/07 08:13:21;;;;;;;8.07;3.37;;;;;;;;;;5092653;28;20476;-77
2023/08/07 08:15:49;;;;;;;10.40;2.80;;;;;;;;;;5089880;28;20559;-78
2023/08/07 08:18:17;;;;;;;6.00;1.87;;;;;;;;;;5093271;28;20485;-78
2023/08/07 08:20:46;;;;;;;18.73;3.27;;;;;;;;;;5098703;28;20470;-79
2023/08/07 08:23:16;;;;;;;6.27;2.87;;;;;;;;;;5091020;28;20448;-78
2023/08/07 08:25:43;;;;;;;7.43;2.17;;;;;;;;;;5088542;28;20477;-78
2023/08/07 08:28:11;;;;;;;9.33;3.33;;;;;;;;;;5096557;28;20451;-78
2023/08/07 08:30:41;;;;;;;9.53;3.40;;;;;;;;;;5084611;28;20456;-78
2023/08/07 08:33:12;;;;;;;11.03;3.07;;;;;;;;;;5098361;28;20463;-77
2023/08/07 08:35:39;;;;;;;8.33;3.00;;;;;;;;;;5089965;28;20463;-77
2023/08/07 08:38:07;;;;;;;6.13;2.93;;;;;;;;;;5093680;28;20491;-78
2023/08/07 08:40:35;;;;;;;10.57;3.37;;;;;;;;;;5096436;28;20470;-78
2023/08/07 08:43:04;;;;;;;9.30;2.67;;;;;;;;;;5090963;28;20462;-78
2023/08/07 08:45:36;;;;;;;6.40;2.83;;;;;;;;;;5093924;28;21036;-79
2023/08/07 08:48:10;;;;;;;9.57;3.30;;;;;;;;;;5093427;28;20834;-78
2023/08/07 08:50:47;;;;;;;7.47;3.03;;;;;;;;;;5100313;28;20455;-77
2023/08/07 08:53:16;;;;;;;9.07;2.43;;;;;;;;;;5090416;28;20451;-78
2023/08/07 08:55:47;;;;;;;6.33;1.97;;;;;;;;;;5091468;28;20483;-79
2023/08/07 08:58:16;;;;;;;10.67;2.77;;;;;;;;;;5092257;28;20519;-77
2023/08/07 09:00:46;;;;;;;12.20;2.97;;;;;;;;;;5087226;28;20472;-77
2023/08/07 09:03:19;;;;;;;6.53;3.20;;;;;;;;;;5090243;28;20483;-77
2023/08/07 09:05:49;;;;;;;4.20;1.53;;;;;;;;;;5097349;28;20455;-77
2023/08/07 09:08:17;;;;;;;13.60;3.97;;;;;;;;;;5092719;28;21007;-77
2023/08/07 09:10:45;;;;;;;11.23;2.97;;;;;;;;;;5094818;28;20447;-79
2023/08/07 09:13:16;;;;;;;8.03;2.60;;;;;;;;;;5088549;28;20472;-78
2023/08/07 09:15:50;;;;;;;8.83;2.50;;;;;;;;;;5080695;28;20488;-77
2023/08/07 09:18:19;;;;;;;12.60;2.37;;;;;;;;;;5087586;28;20480;-77
2023/08/07 09:20:49;;;;;;;6.23;2.73;;;;;;;;;;5083953;28;20457;-78
2023/08/07 09:23:18;;;;;;;6.87;2.17;;;;;;;;;;5082597;28;20917;-78
2023/08/07 09:25:47;;;;;;;10.23;3.30;;;;;;;;;;5092384;28;20448;-78
2023/08/07 09:28:19;;;;;;;7.20;3.37;;;;;;;;;;5089501;28;20459;-77
2023/08/07 09:30:50;;;;;;;9.57;3.17;;;;;;;;;;5095297;28;20517;-76
2023/08/07 09:33:26;;;;;;;6.10;1.83;;;;;;;;;;5087326;28;20457;-77
2023/08/07 09:35:55;;;;;;;11.30;2.90;;;;;;;;;;5089038;28;20768;-78
2023/08/07 09:38:25;;;;;;;8.17;2.83;;;;;;;;;;5088794;28;20476;-77
2023/08/07 09:40:53;;;;;;;6.33;2.40;;;;;;;;;;5099469;28;20524;-78
2023/08/07 09:43:24;;;;;;;6.47;1.97;;;;;;;;;;5082376;28;20462;-78
2023/08/07 09:45:52;;;;;;;10.20;2.40;;;;;;;;;;5091827;28;20759;-78
2023/08/07 09:48:24;;;;;;;9.40;2.37;;;;;;;;;;5092637;28;20455;-78
2023/08/07 09:50:52;;;;;;;8.40;2.90;;;;;;;;;;5082888;28;20530;-78
2023/08/07 09:53:27;;;;;;;4.20;1.67;;;;;;;;;;5087573;28;20452;-78
2023/08/07 09:55:55;;;;;;;4.40;1.70;;;;;;;;;;5093713;28;20864;-78
2023/08/07 09:58:25;;;;;;;4.63;2.07;;;;;;;;;;5086271;28;20500;-77
2023/08/07 10:00:55;;;;;;;4.00;1.77;;;;;;;;;;5105437;28;20493;-78
2023/08/07 10:03:25;;;;;;;12.70;2.70;;;;;;;;;;5077133;28;20933;-78
2023/08/07 10:05:52;;;;;;;14.47;2.77;;;;;;;;;;5067734;28;20477;-79
2023/08/07 10:08:26;;;;;;;4.20;2.10;;;;;;;;;;5068994;28;20937;-79
2023/08/07 10:10:54;;;;;;;7.30;2.80;;;;;;;;;;5076151;28;20456;-79
2023/08/07 10:13:23;;;;;;;6.53;2.40;;;;;;;;;;5079584;28;20491;-78
2023/08/07 10:15:51;;;;;;;8.30;2.23;;;;;;;;;;5061471;28;20556;-78
2023/08/07 10:18:21;;;;;;;4.27;1.60;;;;;;;;;;5062272;28;20485;-78
2023/08/07 10:20:51;;;;;;;8.13;1.80;;;;;;;;;;5069370;28;20464;-78
2023/08/07 10:23:20;;;;;;;11.60;2.50;;;;;;;;;;5075267;28;20457;-78
2023/08/07 10:25:49;;;;;;;9.00;2.37;;;;;;;;;;5070685;28;20508;-79
2023/08/07 10:28:20;;;;;;;6.53;2.20;;;;;;;;;;5069493;28;21217;-79
2023/08/07 10:30:48;;;;;;;5.83;2.20;;;;;;;;;;5067003;28;20480;-78
2023/08/07 10:33:20;;;;;;;7.73;3.33;;;;;;;;;;5063357;28;20472;-79
2023/08/07 10:35:48;;;;;;;11.20;2.30;;;;;;;;;;5062135;28;20535;-79
2023/08/07 10:38:20;;;;;;;7.23;2.43;;;;;;;;;;5075417;28;20758;-79
2023/08/07 10:41:06;;;;;;;3.77;1.80;;;;;;;;;;5080367;28;20475;-79
2023/08/07 10:43:38;;;;;;;8.17;3.23;;;;;;;;;;5079118;28;20466;-79
2023/08/07 10:46:09;;;;;;;5.30;2.00;;;;;;;;;;5077693;28;20476;-80
2023/08/07 10:49:17;;;;;;;7.83;1.90;;;;;;;;;;5085930;28;20536;-78
2023/08/07 10:51:50;;;;;;;9.90;2.93;;;;;;;;;;5081067;28;20460;-77
2023/08/07 10:54:21;;;;;;;10.53;2.67;;;;;;;;;;5078608;28;20441;-78
2023/08/07 10:56:53;;;;;;;9.80;1.60;;;;;;;;;;5078173;28;20471;-79
2023/08/07 10:59:21;;;;;;;7.77;2.53;;;;;;;;;;5079531;28;20472;-79
2023/08/07 11:01:54;;;;;;;12.17;3.47;;;;;;;;;;5067761;28;20484;-78
2023/08/07 11:04:26;;;;;;;12.50;2.80;;;;;;;;;;5102565;28;20452;-77
2023/08/07 11:06:55;;;;;;;8.43;1.93;;;;;;;;;;5105767;28;20457;-79
2023/08/07 11:09:26;;;;;;;11.60;2.63;;;;;;;;;;5106591;28;20451;-77
2023/08/07 11:11:56;;;;;;;5.27;2.17;;;;;;;;;;5106918;28;20542;-79
2023/08/07 11:14:23;;;;;;;7.40;2.30;;;;;;;;;;5110872;28;21252;-79
2023/08/07 11:16:51;;;;;;;7.20;2.27;;;;;;;;;;5104292;28;20455;-78
2023/08/07 11:19:37;;;;;;;9.70;3.97;;;;;;;;;;5098930;28;20490;-78
2023/08/07 11:22:12;;;;;;;6.30;1.80;;;;;;;;;;5087455;28;20472;-78
2023/08/07 11:24:47;;;;;;;4.73;1.63;;;;;;;;;;5086628;28;20456;-78
2023/08/07 11:30:09;;;;;;;11.47;2.30;;;;;;;;;;5085241;28;20452;-78
2023/08/07 11:32:39;;;;;;;6.20;1.90;;;;;;;;;;5086915;28;20456;-78
2023/08/07 11:35:08;;;;;;;5.00;1.90;;;;;;;;;;5092892;28;20463;-78
2023/08/07 11:37:37;;;;;;;4.63;2.10;;;;;;;;;;5093623;28;20497;-77
2023/08/07 11:40:17;;;;;;;8.03;2.90;;;;;;;;;;5103393;28;20474;-79
2023/08/07 11:42:46;;;;;;;7.30;2.70;;;;;;;;;;5120652;28;20477;-78
2023/08/07 11:45:26;;;;;;;5.43;1.83;;;;;;;;;;5110344;28;20476;-78
2023/08/07 11:47:59;;;;;;;7.10;3.20;;;;;;;;;;5083863;28;20754;-78
2023/08/07 11:50:29;;;;;;;5.57;2.43;;;;;;;;;;5084121;28;20514;-78
2023/08/07 11:53:00;;;;;;;4.87;2.40;;;;;;;;;;5100298;28;20459;-78
2023/08/07 11:55:34;;;;;;;5.03;1.87;;;;;;;;;;5100589;28;20460;-77
2023/08/07 11:58:07;;;;;;;11.10;2.10;;;;;;;;;;5099290;28;20452;-78
2023/08/07 12:00:34;;;;;;;6.30;1.50;;;;;;;;;;5075475;28;20480;-79
2023/08/07 12:03:02;;;;;;;6.53;2.07;;;;;;;;;;5064679;28;20588;-79
2023/08/07 12:05:40;;;;;;;7.63;1.47;;;;;;;;;;5058747;28;20503;-79
2023/08/07 12:08:11;;;;;;;6.73;2.00;;;;;;;;;;5059357;28;20472;-78
2023/08/07 12:10:44;;;;;;;8.53;1.90;;;;;;;;;;5073083;28;20453;-78
2023/08/07 12:13:14;;;;;;;3.20;1.40;;;;;;;;;;5060150;28;20461;-78
2023/08/07 12:15:42;;;;;;;8.87;1.53;;;;;;;;;;5068932;28;20476;-79
2023/08/07 12:18:13;;;;;;;7.03;1.50;;;;;;;;;;5070621;28;20472;-78
2023/08/07 12:20:40;;;;;;;7.27;2.13;;;;;;;;;;5061786;28;20523;-78
2023/08/07 12:23:13;;;;;;;1.80;0.80;;;;;;;;;;5076063;28;20466;-78
2023/08/07 12:25:44;;;;;;;3.83;1.40;;;;;;;;;;5066452;28;20465;-80
2023/08/07 12:28:15;;;;;;;4.20;1.20;;;;;;;;;;5068528;28;20456;-77
2023/08/07 12:30:47;;;;;;;5.27;1.30;;;;;;;;;;5071765;28;20472;-77
2023/08/07 12:33:17;;;;;;;6.50;2.57;;;;;;;;;;5063207;28;20480;-78
2023/08/07 12:35:48;;;;;;;4.77;1.30;;;;;;;;;;5084869;28;20522;-77
2023/08/07 12:38:27;;;;;;;4.77;1.53;;;;;;;;;;5059137;28;20473;-78
2023/08/07 12:41:03;;;;;;;4.67;1.50;;;;;;;;;;5075206;28;20859;-79
2023/08/07 12:43:31;;;;;;;5.40;1.30;;;;;;;;;;5073681;28;20460;-80
2023/08/07 12:46:01;;;;;;;7.73;2.00;;;;;;;;;;5079022;28;20465;-78
2023/08/07 12:48:29;;;;;;;5.03;1.53;;;;;;;;;;5077438;28;20440;-78
2023/08/07 12:50:57;;;;;;;5.57;2.07;;;;;;;;;;5075698;28;20457;-79
2023/08/07 12:53:37;;;;;;;7.20;1.50;;;;;;;;;;5069847;28;20457;-77
2023/08/07 12:56:06;;;;;;;3.73;1.40;;;;;;;;;;5062047;28;20440;-78
2023/08/07 12:58:38;;;;;;;9.13;1.50;;;;;;;;;;5071548;28;20458;-77
2023/08/07 13:01:06;;;;;;;6.80;1.63;;;;;;;;;;5075506;28;21076;-79
2023/08/07 13:03:44;;;;;;;4.13;1.30;;;;;;;;;;5071389;28;20515;-79
2023/08/07 13:06:14;;;;;;;6.10;1.67;;;;;;;;;;5059030;28;20452;-78
2023/08/07 13:08:46;;;;;;;5.17;1.80;;;;;;;;;;5064081;28;20896;-79
2023/08/07 13:11:18;;;;;;;6.87;2.73;;;;;;;;;;5065640;28;20536;-79
2023/08/07 13:13:47;;;;;;;6.20;1.83;;;;;;;;;;5063423;28;20659;-78
2023/08/07 13:16:14;;;;;;;5.27;2.17;;;;;;;;;;5062802;28;20453;-78
2023/08/07 13:18:42;;;;;;;6.07;2.03;;;;;;;;;;5063001;28;20444;-79
2023/08/07 13:21:11;;;;;;;4.37;1.37;;;;;;;;;;5067794;28;20470;-78
2023/08/07 13:23:44;;;;;;;14.50;2.00;;;;;;;;;;5084393;28;20452;-79
2023/08/07 13:26:13;;;;;;;2.70;1.10;;;;;;;;;;5066574;28;20748;-78
2023/08/07 13:28:45;;;;;;;5.00;1.40;;;;;;;;;;5073531;28;20740;-80
2023/08/07 13:31:27;;;;;;;7.13;2.07;;;;;;;;;;5071773;28;20527;-78
2023/08/07 13:33:58;;;;;;;8.33;2.50;;;;;;;;;;5076353;28;20471;-79
2023/08/07 13:36:39;;;;;;;8.33;1.80;;;;;;;;;;5076411;28;20453;-79
2023/08/07 13:39:18;;;;;;;4.90;2.20;;;;;;;;;;5073974;28;20480;-77
2023/08/07 13:41:46;;;;;;;7.83;2.07;;;;;;;;;;5082854;28;20527;-78
2023/08/07 13:44:25;;;;;;;5.10;1.73;;;;;;;;;;5082975;28;20475;-77
2023/08/07 13:46:55;;;;;;;5.03;1.30;;;;;;;;;;5080485;28;20475;-77
2023/08/07 13:49:25;;;;;;;3.70;1.20;;;;;;;;;;5080420;28;20507;-79
2023/08/07 13:51:53;;;;;;;5.20;1.60;;;;;;;;;;5070196;28;20461;-77
2023/08/07 13:54:25;;;;;;;3.03;1.30;;;;;;;;;;5080062;28;20464;-77
2023/08/07 13:56:56;;;;;;;8.10;2.00;;;;;;;;;;5083979;28;20480;-77
2023/08/07 13:59:26;;;;;;;5.17;1.60;;;;;;;;;;5080341;28;20575;-77
2023/08/07 14:01:54;;;;;;;12.57;6.53;;;;;;;;;;5082484;28;20492;-76
2023/08/07 14:04:22;;;;;;;3.47;1.20;;;;;;;;;;5073292;28;20657;-78
2023/08/07 14:06:49;;;;;;;6.83;1.80;;;;;;;;;;5065907;28;20464;-77
2023/08/07 14:09:18;;;;;;;7.53;2.33;;;;;;;;;;5066417;28;20454;-77
2023/08/07 14:11:58;;;;;;;6.23;1.70;;;;;;;;;;5075350;28;21055;-78
2023/08/07 14:14:31;;;;;;;2.77;1.17;;;;;;;;;;5070053;28;20465;-78
2023/08/07 14:17:00;;;;;;;4.67;1.73;;;;;;;;;;5069771;28;20555;-78
2023/08/07 14:19:28;;;;;;;8.20;1.77;;;;;;;;;;5074489;28;20485;-77
2023/08/07 14:21:58;;;;;;;6.60;2.27;;;;;;;;;;5071333;28;20496;-78
2023/08/07 14:24:26;;;;;;;3.97;1.87;;;;;;;;;;5070513;28;20778;-77
2023/08/07 14:26:54;;;;;;;6.90;1.77;;;;;;;;;;5062731;28;20762;-78
2023/08/07 14:29:22;;;;;;;5.13;2.27;;;;;;;;;;5062108;28;20445;-78
2023/08/07 14:31:52;;;;;;;6.17;2.30;;;;;;;;;;5069691;28;20467;-77
2023/08/07 14:34:20;;;;;;;7.97;2.67;;;;;;;;;;5056443;28;20454;-78
2023/08/07 14:36:47;;;;;;;8.67;2.30;;;;;;;;;;5056888;28;20589;-77
2023/08/07 14:39:21;;;;;;;11.80;2.17;;;;;;;;;;5070141;28;20772;-79
2023/08/07 14:41:55;;;;;;;7.80;2.50;;;;;;;;;;5064323;28;20462;-78
2023/08/07 14:44:23;;;;;;;12.37;3.07;;;;;;;;;;5077041;28;20445;-78
2023/08/07 14:46:52;;;;;;;9.40;1.90;;;;;;;;;;5077214;28;20896;-77
2023/08/07 14:49:21;;;;;;;11.70;3.03;;;;;;;;;;5060469;28;20449;-77
2023/08/07 14:51:48;;;;;;;7.13;2.17;;;;;;;;;;5059776;28;21104;-78
2023/08/07 14:54:16;;;;;;;6.17;2.00;;;;;;;;;;5060757;28;20461;-77
2023/08/07 14:56:45;;;;;;;8.13;2.10;;;;;;;;;;5060204;28;20547;-77